Time;durP1;ratioP1;P1;durP2;ratioP2;P2;SDS_P1;SDS_P2;PMS_P1;PMS_P2;Temp;Humidity;BMP_temperature;BMP_pressure;BME280_temperature;BME280_humidity;BME280_pressure;Samples;Min_cycle;Max_cycle;Signal;HPM_P1;HPM_P2
2021/10/23 00:01:43;;;;;;;6.70;4.20;;;;;;;0.48;100.00;97536.88;4998234;28;20037;-66
2021/10/23 00:04:09;;;;;;;9.02;5.28;;;;;;;0.62;100.00;97533.56;4995558;28;20030;-66
2021/10/23 00:06:35;;;;;;;7.82;4.95;;;;;;;0.67;100.00;97534.34;4980054;28;20226;-66
2021/10/23 00:09:00;;;;;;;10.65;4.32;;;;;;;0.68;100.00;97527.03;4994517;28;20099;-66
2021/10/23 00:11:25;;;;;;;9.38;4.38;;;;;;;0.73;100.00;97532.41;4997495;28;20052;-66
2021/10/23 00:13:51;;;;;;;11.68;4.32;;;;;;;0.80;100.00;97535.56;4992427;28;20056;-65
2021/10/23 00:16:16;;;;;;;5.90;3.92;;;;;;;0.89;100.00;97541.16;4978685;28;20041;-64
2021/10/23 00:18:42;;;;;;;7.60;3.83;;;;;;;0.91;100.00;97539.00;5000457;28;20049;-66
2021/10/23 00:21:07;;;;;;;7.32;4.40;;;;;;;1.00;100.00;97540.00;4986445;28;20056;-65
2021/10/23 00:23:33;;;;;;;8.75;3.97;;;;;;;1.05;100.00;97541.84;4998995;28;20046;-64
2021/10/23 00:25:58;;;;;;;11.13;4.18;;;;;;;1.09;100.00;97542.88;4982353;28;20503;-65
2021/10/23 00:28:24;;;;;;;7.80;4.05;;;;;;;1.09;100.00;97545.56;4977662;28;20624;-65
2021/10/23 00:30:50;;;;;;;6.30;4.13;;;;;;;0.99;100.00;97543.78;4994090;28;20073;-66
2021/10/23 00:33:15;;;;;;;5.45;3.40;;;;;;;0.92;100.00;97551.41;4960923;28;20046;-65
2021/10/23 00:35:41;;;;;;;12.38;5.95;;;;;;;0.98;100.00;97544.06;4982132;28;20034;-65
2021/10/23 00:38:06;;;;;;;9.80;4.10;;;;;;;0.91;100.00;97547.88;4986489;28;20053;-65
2021/10/23 00:40:32;;;;;;;10.20;3.50;;;;;;;0.70;100.00;97546.44;4994781;28;20056;-66
2021/10/23 00:42:59;;;;;;;5.03;3.50;;;;;;;0.50;100.00;97542.00;4984764;28;20099;-67
2021/10/23 00:45:25;;;;;;;8.50;3.60;;;;;;;0.56;100.00;97539.00;4997298;28;20423;-66
2021/10/23 00:47:50;;;;;;;6.75;4.05;;;;;;;0.67;100.00;97547.81;5001611;28;20403;-66
2021/10/23 00:50:16;;;;;;;7.60;3.85;;;;;;;0.80;100.00;97538.28;4979343;28;20201;-66
2021/10/23 00:52:42;;;;;;;8.38;3.95;;;;;;;0.83;100.00;97540.41;4990063;28;20050;-65
2021/10/23 00:55:08;;;;;;;9.32;3.65;;;;;;;0.85;100.00;97534.75;4984727;28;20405;-65
2021/10/23 00:57:34;;;;;;;6.43;3.45;;;;;;;0.88;100.00;97539.56;5001780;28;20046;-66
2021/10/23 01:00:00;;;;;;;7.47;3.97;;;;;;;0.86;100.00;97539.03;4994204;28;20064;-66
2021/10/23 01:02:25;;;;;;;6.38;3.13;;;;;;;0.79;100.00;97544.75;4988545;28;20042;-67
2021/10/23 01:04:51;;;;;;;6.82;4.13;;;;;;;0.79;100.00;97547.44;4983551;28;20041;-66
2021/10/23 01:07:17;;;;;;;10.00;4.05;;;;;;;0.73;100.00;97543.97;4976928;28;20621;-66
2021/10/23 01:09:44;;;;;;;7.05;3.70;;;;;;;0.77;100.00;97552.31;4987444;28;20395;-66
2021/10/23 01:12:12;;;;;;;12.60;3.95;;;;;;;0.70;100.00;97546.44;4988163;28;20529;-66
2021/10/23 01:14:39;;;;;;;12.35;3.75;;;;;;;0.78;100.00;97553.13;4979539;28;20101;-67
2021/10/23 01:17:04;;;;;;;7.00;3.20;;;;;;;0.70;100.00;97549.13;4975897;28;20045;-65
2021/10/23 01:19:30;;;;;;;6.20;3.42;;;;;;;0.78;100.00;97555.84;4996087;28;20046;-66
2021/10/23 01:21:56;;;;;;;5.97;3.17;;;;;;;0.74;100.00;97558.28;4981004;28;20041;-66
2021/10/23 01:24:23;;;;;;;9.13;3.90;;;;;;;0.71;100.00;97556.94;4974318;28;21013;-66
2021/10/23 01:26:49;;;;;;;6.55;3.70;;;;;;;0.66;100.00;97559.69;4977925;28;20054;-67
2021/10/23 01:29:18;;;;;;;5.43;3.30;;;;;;;0.54;100.00;97554.66;4948978;28;20054;-65
2021/10/23 01:31:44;;;;;;;9.05;3.78;;;;;;;0.54;100.00;97562.75;4961681;28;20112;-67
2021/10/23 01:34:17;;;;;;;6.82;3.17;;;;;;;0.45;100.00;97555.50;4953734;28;20054;-65
2021/10/23 01:37:13;;;;;;;8.32;3.70;;;;;;;0.41;100.00;97551.78;4959600;28;20054;-65
2021/10/23 01:39:38;;;;;;;7.18;3.58;;;;;;;0.38;100.00;97548.56;4924190;28;20049;-66
2021/10/23 01:42:04;;;;;;;5.90;3.00;;;;;;;0.16;100.00;97554.34;4939960;28;20034;-64
2021/10/23 01:44:35;;;;;;;7.57;3.10;;;;;;;0.02;100.00;97557.91;4957943;28;20051;-66
2021/10/23 01:47:06;;;;;;;22.67;4.20;;;;;;;-0.44;100.00;97546.25;4960602;28;20046;-67
2021/10/23 01:49:31;;;;;;;8.95;3.70;;;;;;;-0.80;100.00;97551.72;4942953;28;20500;-65
2021/10/23 01:51:57;;;;;;;15.48;5.53;;;;;;;-1.02;100.00;97552.03;4961466;28;20050;-66
2021/10/23 01:54:22;;;;;;;8.05;4.15;;;;;;;-1.11;100.00;97548.28;4951892;28;20062;-64
2021/10/23 01:56:48;;;;;;;9.05;3.97;;;;;;;-1.03;100.00;97546.91;4957600;28;20047;-66
2021/10/23 01:59:13;;;;;;;13.88;4.40;;;;;;;-1.06;100.00;97548.28;4955679;28;20031;-64
2021/10/23 02:01:39;;;;;;;10.77;4.30;;;;;;;-0.97;100.00;97543.97;4960082;28;20050;-64
2021/10/23 02:04:05;;;;;;;9.70;4.40;;;;;;;-0.85;100.00;97550.94;4964531;28;20046;-63
2021/10/23 02:06:31;;;;;;;9.07;4.28;;;;;;;-0.69;100.00;97543.63;4980981;28;20050;-66
2021/10/23 02:08:56;;;;;;;7.05;3.70;;;;;;;-0.44;100.00;97548.94;4981009;28;20449;-67
2021/10/23 02:11:22;;;;;;;8.88;3.92;;;;;;;-0.32;100.00;97548.66;4974638;28;20476;-65
2021/10/23 02:13:47;;;;;;;8.82;4.13;;;;;;;-0.15;100.00;97547.50;4979167;28;20439;-66
2021/10/23 02:16:13;;;;;;;9.90;4.45;;;;;;;-0.06;100.00;97543.94;4972536;28;20042;-65
2021/10/23 02:18:39;;;;;;;11.13;3.45;;;;;;;0.04;100.00;97547.66;4980337;28;20089;-66
2021/10/23 02:21:07;;;;;;;5.15;3.15;;;;;;;0.07;100.00;97550.59;4974578;28;20042;-63
2021/10/23 02:23:32;;;;;;;11.73;3.72;;;;;;;0.08;100.00;97546.84;4976360;28;20042;-65
2021/10/23 02:25:58;;;;;;;7.43;3.53;;;;;;;0.10;100.00;97552.75;4979157;28;20042;-64
2021/10/23 02:28:24;;;;;;;9.48;3.67;;;;;;;0.10;100.00;97551.97;4969822;28;20293;-65
2021/10/23 02:30:49;;;;;;;6.18;3.40;;;;;;;0.14;100.00;97551.09;4960929;28;20045;-66
2021/10/23 02:33:15;;;;;;;27.75;4.22;;;;;;;0.08;100.00;97563.00;4969245;28;20727;-65
2021/10/23 02:35:41;;;;;;;11.65;3.80;;;;;;;0.16;100.00;97556.22;4979221;28;20495;-66
2021/10/23 02:38:06;;;;;;;6.13;3.17;;;;;;;0.16;100.00;97557.03;4972092;28;20144;-66
2021/10/23 02:40:32;;;;;;;4.93;2.78;;;;;;;0.18;100.00;97562.13;4979624;28;20050;-66
2021/10/23 02:42:58;;;;;;;7.10;3.30;;;;;;;0.17;100.00;97555.16;4979430;28;20034;-65
2021/10/23 02:45:23;;;;;;;5.85;3.05;;;;;;;0.23;100.00;97558.63;4974015;28;20444;-65
2021/10/23 02:47:49;;;;;;;8.18;3.00;;;;;;;0.21;100.00;97552.72;4980583;28;20538;-64
2021/10/23 02:50:15;;;;;;;5.28;2.78;;;;;;;0.15;100.00;97550.03;4973108;28;20038;-65
2021/10/23 02:52:40;;;;;;;11.48;3.38;;;;;;;0.16;100.00;97550.84;4994796;28;20042;-64
2021/10/23 02:55:06;;;;;;;11.57;3.40;;;;;;;0.14;100.00;97553.00;4990848;28;20080;-67
2021/10/23 02:57:32;;;;;;;7.15;2.90;;;;;;;0.08;100.00;97551.44;4978228;28;20138;-67
2021/10/23 02:59:57;;;;;;;6.30;2.60;;;;;;;0.01;100.00;97559.00;4979558;28;20043;-64
2021/10/23 03:02:23;;;;;;;8.10;3.55;;;;;;;-0.21;100.00;97560.97;4969624;28;21646;-64
2021/10/23 03:04:48;;;;;;;8.98;3.05;;;;;;;-0.18;100.00;97564.19;4979877;28;20042;-66
2021/10/23 03:07:14;;;;;;;7.82;3.33;;;;;;;-0.18;100.00;97567.72;4973899;28;20046;-65
2021/10/23 03:09:39;;;;;;;9.25;2.95;;;;;;;-0.17;100.00;97566.63;4979508;28;20038;-65
2021/10/23 03:12:05;;;;;;;11.57;3.08;;;;;;;-0.17;100.00;97571.22;4974962;28;20038;-66
2021/10/23 03:14:31;;;;;;;6.00;3.22;;;;;;;-0.41;100.00;97567.25;4974226;28;20030;-65
2021/10/23 03:16:56;;;;;;;7.90;3.40;;;;;;;-0.72;100.00;97569.22;4983611;28;20042;-65
2021/10/23 03:19:22;;;;;;;8.77;3.63;;;;;;;-0.95;100.00;97575.97;4978654;28;20042;-65
2021/10/23 03:21:47;;;;;;;8.00;3.25;;;;;;;-1.16;100.00;97588.59;4959432;28;20077;-65
2021/10/23 03:24:12;;;;;;;14.55;4.03;;;;;;;-1.29;100.00;97597.22;4984934;28;20042;-65
2021/10/23 03:26:38;;;;;;;14.30;4.22;;;;;;;-1.38;100.00;97591.56;4982056;28;20073;-64
2021/10/23 03:29:04;;;;;;;11.73;4.65;;;;;;;-1.31;100.00;97593.97;4980330;28;20076;-63
2021/10/23 03:31:30;;;;;;;13.10;5.55;;;;;;;-1.21;100.00;97602.03;4980033;28;20593;-66
2021/10/23 03:33:56;;;;;;;8.68;3.85;;;;;;;-1.19;100.00;97602.56;4993698;28;20065;-65
2021/10/23 03:36:22;;;;;;;14.80;6.38;;;;;;;-1.20;100.00;97595.59;4985655;28;20046;-64
2021/10/23 03:38:47;;;;;;;11.82;5.03;;;;;;;-1.22;100.00;97600.44;4997967;28;20101;-66
2021/10/23 03:41:13;;;;;;;12.18;4.88;;;;;;;-1.28;100.00;97598.81;4992638;23;20066;-59
2021/10/23 03:43:38;;;;;;;10.55;4.85;;;;;;;-1.10;100.00;97606.34;5010886;28;20053;-60
2021/10/23 03:46:04;;;;;;;12.00;4.63;;;;;;;-1.13;100.00;97606.88;5006249;28;20037;-61
2021/10/23 03:48:29;;;;;;;11.52;3.97;;;;;;;-1.10;100.00;97606.34;4995591;28;20409;-61
2021/10/23 03:50:55;;;;;;;8.75;4.28;;;;;;;-0.88;100.00;97605.25;4998945;28;20060;-62
2021/10/23 03:53:20;;;;;;;9.20;4.18;;;;;;;-0.72;100.00;97600.66;5008155;28;20049;-61
2021/10/23 03:55:46;;;;;;;11.25;3.78;;;;;;;-0.66;100.00;97608.47;5004733;28;20049;-62
2021/10/23 03:58:11;;;;;;;10.38;3.58;;;;;;;-0.68;100.00;97607.94;4963887;28;20550;-60
2021/10/23 04:00:38;;;;;;;8.35;3.88;;;;;;;-0.76;100.00;97611.16;5001202;28;20165;-59
2021/10/23 04:03:03;;;;;;;10.50;3.63;;;;;;;-0.63;100.00;97610.63;4994125;28;20077;-63
2021/10/23 04:05:29;;;;;;;8.35;3.38;;;;;;;-0.52;100.00;97615.97;5003696;28;20088;-59
2021/10/23 04:07:54;;;;;;;9.65;3.47;;;;;;;-0.53;100.00;97625.13;4998761;28;20133;-59
2021/10/23 04:10:20;;;;;;;6.28;3.47;;;;;;;-0.66;100.00;97631.88;4998108;28;20463;-59
2021/10/23 04:12:47;;;;;;;7.10;3.40;;;;;;;-0.72;100.00;97625.72;5002475;28;20045;-59
2021/10/23 04:15:13;;;;;;;5.72;3.33;;;;;;;-0.70;100.00;97620.88;5011681;28;20084;-60
2021/10/23 04:17:38;;;;;;;7.22;3.30;;;;;;;-0.63;100.00;97618.69;4985563;28;20065;-59
2021/10/23 04:20:05;;;;;;;5.80;3.20;;;;;;;-0.70;100.00;97626.25;5012895;28;20057;-60
2021/10/23 04:22:31;;;;;;;14.45;5.30;;;;;;;-0.69;100.00;97627.84;5007497;28;20131;-61
2021/10/23 04:24:56;;;;;;;11.20;3.85;;;;;;;-0.69;100.00;97627.84;5023652;28;20045;-61
2021/10/23 04:27:21;;;;;;;7.78;3.15;;;;;;;-0.89;100.00;97631.34;5012766;28;20077;-59
2021/10/23 04:29:47;;;;;;;9.57;3.45;;;;;;;-1.06;100.00;97630.81;5005795;28;20046;-60
2021/10/23 04:32:13;;;;;;;8.07;3.35;;;;;;;-1.14;100.00;97628.66;4981989;28;20558;-60
2021/10/23 04:34:38;;;;;;;9.50;3.17;;;;;;;-1.02;100.00;97624.63;4992379;28;20041;-58
2021/10/23 04:37:05;;;;;;;6.63;3.10;;;;;;;-0.82;100.00;97631.09;4990848;28;20046;-60
2021/10/23 04:39:30;;;;;;;5.50;3.20;;;;;;;-0.74;100.00;97625.16;5005960;28;20111;-59
2021/10/23 04:41:56;;;;;;;7.78;3.53;;;;;;;-0.64;100.00;97629.72;5008925;28;20049;-58
2021/10/23 04:44:22;;;;;;;8.27;4.35;;;;;;;-0.63;100.00;97624.09;5005798;28;20081;-60
2021/10/23 04:46:47;;;;;;;11.65;4.70;;;;;;;-0.78;100.00;97622.19;5020597;28;20466;-60
2021/10/23 04:49:14;;;;;;;7.85;3.63;;;;;;;-0.98;100.00;97623.00;5000476;28;20038;-60
2021/10/23 04:51:39;;;;;;;6.07;2.78;;;;;;;-1.18;100.00;97629.19;5007463;28;20073;-59
2021/10/23 04:54:05;;;;;;;5.20;3.15;;;;;;;-1.30;100.00;97628.63;5000177;28;20081;-62
2021/10/23 04:56:31;;;;;;;9.00;3.58;;;;;;;-1.38;100.00;97632.66;5006587;28;20046;-59
2021/10/23 04:58:56;;;;;;;8.23;3.67;;;;;;;-1.56;100.00;97623.22;5011353;28;20486;-61
2021/10/23 05:01:22;;;;;;;11.73;3.92;;;;;;;-1.69;100.00;97623.72;5011766;28;20060;-61
2021/10/23 05:03:48;;;;;;;5.82;3.22;;;;;;;-1.71;100.00;97631.25;4998775;28;20573;-62
2021/10/23 05:06:13;;;;;;;8.43;4.25;;;;;;;-1.66;100.00;97639.31;5000705;28;20045;-61
2021/10/23 05:08:38;;;;;;;6.40;3.55;;;;;;;-1.56;100.00;97631.28;4985440;28;20116;-60
2021/10/23 05:11:04;;;;;;;7.22;3.83;;;;;;;-1.40;100.00;97631.31;5007796;28;20049;-62
2021/10/23 05:13:29;;;;;;;7.43;3.47;;;;;;;-1.47;100.00;97628.09;5010939;28;20108;-60
2021/10/23 05:15:55;;;;;;;5.15;2.85;;;;;;;-1.51;100.00;97630.50;5012028;28;20057;-60
2021/10/23 05:18:20;;;;;;;6.45;3.58;;;;;;;-1.50;100.00;97631.28;4994772;28;20351;-61
2021/10/23 05:20:45;;;;;;;9.73;3.65;;;;;;;-1.08;100.00;97628.41;5005217;28;20049;-60
2021/10/23 05:23:11;;;;;;;8.80;3.72;;;;;;;-0.78;100.00;97629.47;5008890;28;20044;-58
2021/10/23 05:25:36;;;;;;;7.20;3.55;;;;;;;-0.87;100.00;97628.41;4999853;28;20053;-58
2021/10/23 05:28:02;;;;;;;7.80;3.42;;;;;;;-1.12;100.00;97629.19;5007010;28;20046;-59
2021/10/23 05:30:27;;;;;;;9.60;3.42;;;;;;;-1.21;100.00;97629.72;5004173;28;20044;-59
2021/10/23 05:32:53;;;;;;;7.68;3.30;;;;;;;-1.11;100.00;97620.06;5003800;28;20125;-59
2021/10/23 05:35:18;;;;;;;10.80;3.75;;;;;;;-0.91;100.00;97628.13;4998717;28;20052;-58
2021/10/23 05:37:44;;;;;;;10.73;3.75;;;;;;;-0.90;100.00;97627.06;5008174;28;20110;-60
2021/10/23 05:40:09;;;;;;;11.85;2.80;;;;;;;-0.88;100.00;97630.28;5006013;28;20042;-60
2021/10/23 05:42:35;;;;;;;9.00;3.35;;;;;;;-0.78;100.00;97629.47;5030380;28;20048;-61
2021/10/23 05:45:00;;;;;;;9.55;3.35;;;;;;;-0.63;100.00;97632.16;5031730;28;20034;-61
2021/10/23 05:47:26;;;;;;;9.43;3.30;;;;;;;-0.71;100.00;97626.50;5013220;28;20678;-60
2021/10/23 05:49:51;;;;;;;11.07;4.60;;;;;;;-0.93;100.00;97618.72;5001032;28;20045;-59
2021/10/23 05:52:16;;;;;;;6.85;3.38;;;;;;;-0.87;100.00;97623.81;5005832;28;20088;-59
2021/10/23 05:54:42;;;;;;;8.75;3.10;;;;;;;-0.76;100.00;97627.31;5006006;28;20053;-61
2021/10/23 05:57:09;;;;;;;15.15;8.15;;;;;;;-0.98;100.00;97627.59;4997379;28;20505;-60
2021/10/23 05:59:41;;;;;;;12.27;6.40;;;;;;;-1.12;100.00;97635.38;4987565;28;20555;-60
2021/10/23 06:04:54;;;;;;;7.93;3.83;;;;;;;-1.19;100.00;97640.19;5006241;28;20045;-60
2021/10/23 06:07:22;;;;;;;6.88;3.50;;;;;;;-0.91;100.00;97644.25;4995170;28;20048;-59
2021/10/23 06:09:48;;;;;;;4.95;2.75;;;;;;;-0.67;100.00;97652.59;5001584;28;20124;-59
2021/10/23 06:12:14;;;;;;;9.63;3.92;;;;;;;-0.72;100.00;97649.09;4982702;28;20045;-59
2021/10/23 06:14:40;;;;;;;9.27;4.28;;;;;;;-0.93;100.00;97646.41;5013889;28;20046;-59
2021/10/23 06:17:06;;;;;;;6.70;3.10;;;;;;;-0.77;100.00;97642.66;4989607;28;20046;-61
2021/10/23 06:19:33;;;;;;;12.38;3.58;;;;;;;-0.57;100.00;97640.22;4998603;28;20231;-59
2021/10/23 06:21:58;;;;;;;7.00;3.35;;;;;;;-0.32;100.00;97645.56;5004378;28;20049;-59
2021/10/23 06:24:24;;;;;;;8.63;3.63;;;;;;;-0.24;100.00;97649.56;4994483;28;20542;-62
2021/10/23 06:26:50;;;;;;;6.97;3.45;;;;;;;-0.16;100.00;97651.72;4999401;28;20041;-58
2021/10/23 06:29:15;;;;;;;7.47;5.03;;;;;;;-0.12;100.00;97652.78;5002471;28;20467;-59
2021/10/23 06:31:41;;;;;;;16.42;6.50;;;;;;;-0.53;100.00;97644.78;5008567;28;20052;-59
2021/10/23 06:34:06;;;;;;;13.57;6.57;;;;;;;-0.38;100.00;97649.31;5000947;28;20088;-57
2021/10/23 06:36:31;;;;;;;10.88;5.00;;;;;;;-0.08;100.00;97655.72;5001135;28;20046;-59
2021/10/23 06:38:57;;;;;;;8.45;4.05;;;;;;;0.45;100.00;97660.63;4998728;28;20096;-59
2021/10/23 06:41:22;;;;;;;8.65;4.43;;;;;;;1.40;100.00;97651.34;5013854;28;20041;-61
2021/10/23 06:43:48;;;;;;;10.48;3.70;;;;;;;2.53;100.00;97654.72;5024491;28;20534;-60
2021/10/23 06:46:13;;;;;;;6.85;2.60;;;;;;;3.69;98.70;97655.09;5013525;28;20048;-60
2021/10/23 06:48:39;;;;;;;5.15;2.70;;;;;;;4.68;87.99;97653.72;5009285;28;20046;-60
2021/10/23 06:51:04;;;;;;;4.95;2.63;;;;;;;5.23;80.68;97649.22;4996190;28;20037;-61
2021/10/23 06:53:29;;;;;;;4.15;1.95;;;;;;;6.11;76.97;97656.78;5007642;28;20081;-60
2021/10/23 06:55:55;;;;;;;10.50;3.05;;;;;;;6.18;74.09;97659.06;5007101;28;20060;-60
2021/10/23 06:58:20;;;;;;;9.98;2.30;;;;;;;7.23;70.86;97677.19;4998925;28;20055;-60
2021/10/23 07:00:46;;;;;;;5.20;1.90;;;;;;;7.92;67.73;97669.25;5011519;28;20049;-59
2021/10/23 07:03:11;;;;;;;4.80;2.33;;;;;;;8.44;65.08;97668.28;4990884;28;20045;-60
2021/10/23 07:05:37;;;;;;;7.25;2.25;;;;;;;8.63;61.70;97671.38;5003033;28;20115;-62
2021/10/23 07:08:02;;;;;;;6.38;2.50;;;;;;;9.14;60.60;97668.63;4998149;28;20080;-61
2021/10/23 07:10:28;;;;;;;12.65;2.90;;;;;;;9.44;60.03;97672.09;5009191;28;20080;-61
2021/10/23 07:12:54;;;;;;;3.83;2.40;;;;;;;10.09;58.41;97669.66;5015632;28;20045;-59
2021/10/23 07:15:19;;;;;;;4.55;2.13;;;;;;;10.06;57.75;97664.84;5017214;28;20045;-61
2021/10/23 07:17:45;;;;;;;6.25;2.28;;;;;;;10.07;57.69;97671.94;5006602;28;20406;-61
2021/10/23 07:20:11;;;;;;;5.32;2.47;;;;;;;10.69;55.96;97672.00;5009697;28;20096;-63
2021/10/23 07:22:37;;;;;;;4.07;2.10;;;;;;;11.32;55.24;97671.53;5007985;28;20518;-61
2021/10/23 07:25:04;;;;;;;4.75;2.30;;;;;;;11.52;53.58;97678.00;5003448;28;20132;-62
2021/10/23 07:27:29;;;;;;;6.93;2.65;;;;;;;11.96;52.50;97680.00;5014937;28;20044;-61
2021/10/23 07:29:55;;;;;;;5.68;2.53;;;;;;;11.95;52.01;97690.19;5007734;28;20494;-62
2021/10/23 07:32:20;;;;;;;5.63;2.58;;;;;;;12.29;52.17;97682.44;5010276;28;20038;-62
2021/10/23 07:34:45;;;;;;;6.05;2.53;;;;;;;12.68;51.49;97690.06;5014541;28;20517;-63
2021/10/23 07:37:11;;;;;;;4.07;2.33;;;;;;;12.90;50.17;97694.09;5000875;28;20048;-61
2021/10/23 07:39:36;;;;;;;7.45;2.95;;;;;;;12.14;52.85;97695.00;4989402;28;20724;-60
2021/10/23 07:42:03;;;;;;;7.93;2.95;;;;;;;12.69;51.49;97700.66;4987536;28;20054;-62
2021/10/23 07:44:29;;;;;;;6.32;2.60;;;;;;;13.17;50.17;97697.84;5007627;28;20045;-60
2021/10/23 07:46:54;;;;;;;8.43;3.92;;;;;;;12.88;50.85;97704.66;5000391;28;20042;-60
2021/10/23 07:49:19;;;;;;;5.75;3.47;;;;;;;13.15;50.77;97711.16;4991881;28;20111;-61
2021/10/23 07:51:45;;;;;;;8.38;3.80;;;;;;;13.33;48.77;97709.63;5008914;28;20383;-61
2021/10/23 07:54:10;;;;;;;11.45;4.32;;;;;;;13.46;50.11;97704.00;5000607;28;20185;-61
2021/10/23 07:56:37;;;;;;;5.65;3.40;;;;;;;13.47;50.19;97713.84;5008351;28;20128;-61
2021/10/23 07:59:03;;;;;;;7.80;3.47;;;;;;;13.27;51.03;97711.03;5000808;28;20521;-61
2021/10/23 08:01:28;;;;;;;4.88;3.60;;;;;;;13.32;51.33;97710.78;5015475;28;20042;-60
2021/10/23 08:03:55;;;;;;;9.05;3.72;;;;;;;13.28;51.99;97707.13;4998967;28;20045;-60
2021/10/23 08:06:21;;;;;;;5.82;3.13;;;;;;;12.98;51.29;97704.91;5002197;28;20068;-61
2021/10/23 08:08:47;;;;;;;6.45;3.30;;;;;;;11.86;57.11;97709.50;5008857;28;20046;-60
2021/10/23 08:11:12;;;;;;;7.15;4.10;;;;;;;11.56;59.02;97703.59;5010871;28;20060;-62
2021/10/23 08:13:39;;;;;;;8.48;3.22;;;;;;;13.25;54.17;97694.06;5007923;28;20042;-62
2021/10/23 08:16:04;;;;;;;9.38;3.35;;;;;;;14.19;51.68;97695.94;5005292;28;20057;-62
2021/10/23 08:18:31;;;;;;;6.55;3.63;;;;;;;12.84;53.89;97698.25;4995498;28;20422;-61
2021/10/23 08:20:56;;;;;;;5.80;3.08;;;;;;;12.13;57.34;97707.13;5007137;28;20138;-61
2021/10/23 08:23:23;;;;;;;8.82;3.97;;;;;;;12.63;58.17;97702.91;5001658;28;20896;-60
2021/10/23 08:25:51;;;;;;;9.23;4.07;;;;;;;12.35;58.71;97708.50;5010631;28;20052;-61
2021/10/23 08:28:16;;;;;;;5.03;3.15;;;;;;;13.24;55.21;97711.75;4993685;28;20049;-62
2021/10/23 08:30:42;;;;;;;8.00;3.10;;;;;;;13.70;54.75;97698.22;5013986;28;20037;-62
2021/10/23 08:33:07;;;;;;;14.63;3.50;;;;;;;13.43;54.14;97712.97;4999668;28;20387;-62
2021/10/23 08:35:32;;;;;;;10.65;5.10;;;;;;;10.69;63.39;97721.31;5012972;28;20050;-62
2021/10/23 08:37:59;;;;;;;12.18;5.50;;;;;;;9.92;66.63;97714.44;5019318;28;20045;-62
2021/10/23 08:40:24;;;;;;;21.67;5.78;;;;;;;10.27;67.89;97702.31;5005752;28;20096;-61
2021/10/23 08:42:50;;;;;;;16.25;5.85;;;;;;;9.54;71.50;97712.72;4985177;28;20446;-59
2021/10/23 08:45:17;;;;;;;11.90;4.90;;;;;;;9.23;73.09;97698.66;4999414;28;20062;-60
2021/10/23 08:47:44;;;;;;;16.52;6.80;;;;;;;10.17;72.33;97703.53;4992946;28;20042;-60
2021/10/23 08:50:14;;;;;;;9.98;5.07;;;;;;;11.97;66.28;97704.34;5009540;28;20701;-61
2021/10/23 08:52:40;;;;;;;11.05;4.60;;;;;;;12.65;63.06;97694.28;5013164;28;20709;-60
2021/10/23 08:55:07;;;;;;;7.93;3.60;;;;;;;13.39;60.57;97691.66;5009067;28;20053;-60
2021/10/23 08:57:32;;;;;;;8.80;4.57;;;;;;;13.25;59.34;97680.31;4995617;28;20045;-64
2021/10/23 08:59:59;;;;;;;12.43;5.50;;;;;;;13.62;59.07;97668.94;5014250;28;20415;-61
2021/10/23 09:02:26;;;;;;;12.07;4.00;;;;;;;12.88;60.54;97666.97;4994086;28;20049;-61
2021/10/23 09:04:54;;;;;;;10.90;4.53;;;;;;;13.07;59.20;97662.66;5001000;28;20492;-62
2021/10/23 09:07:22;;;;;;;11.43;4.07;;;;;;;13.53;58.15;97663.66;4993243;28;20046;-62
2021/10/23 09:09:47;;;;;;;9.80;5.10;;;;;;;12.09;62.65;97688.97;5006089;28;20414;-60
2021/10/23 09:12:30;;;;;;;13.57;6.32;;;;;;;10.06;71.08;97697.69;5012425;28;20050;-60
2021/10/23 09:15:21;;;;;;;13.30;5.57;;;;;;;9.75;75.90;97682.56;5009494;28;20053;-62
2021/10/23 09:17:49;;;;;;;8.70;4.05;;;;;;;10.26;72.62;97663.19;5002488;28;20045;-59
2021/10/23 09:20:16;;;;;;;9.52;5.20;;;;;;;10.49;71.35;97657.28;5002056;28;20045;-60
2021/10/23 09:22:45;;;;;;;9.38;3.78;;;;;;;12.10;66.71;97669.41;5007869;28;20034;-60
2021/10/23 09:25:33;;;;;;;7.35;3.88;;;;;;;13.93;57.73;97684.47;5005476;28;20067;-62
2021/10/23 09:28:12;;;;;;;7.93;3.60;;;;;;;14.86;54.41;97677.03;5012586;28;20041;-62
2021/10/23 09:30:44;;;;;;;9.27;3.50;;;;;;;15.88;51.24;97670.84;5007198;28;20052;-61
2021/10/23 09:33:12;;;;;;;6.80;3.78;;;;;;;14.32;55.42;97667.88;4998417;28;20093;-62
2021/10/23 09:35:42;;;;;;;8.10;3.38;;;;;;;12.23;62.10;97681.91;5010119;28;20046;-62
2021/10/23 09:38:09;;;;;;;8.50;3.97;;;;;;;12.28;61.78;97669.84;5003251;28;20070;-62
2021/10/23 09:40:37;;;;;;;9.57;4.10;;;;;;;11.52;64.09;97672.50;5016092;28;20052;-60
2021/10/23 09:43:12;;;;;;;12.93;4.90;;;;;;;13.14;61.95;97658.13;5002400;28;20055;-61
2021/10/23 09:46:06;;;;;;;6.97;4.03;;;;;;;11.07;67.08;97665.31;5019496;23;20053;-59
2021/10/23 09:48:53;;;;;;;8.93;3.92;;;;;;;13.92;59.01;97658.13;5001090;28;20506;-58
2021/10/23 09:51:18;;;;;;;7.03;3.45;;;;;;;15.26;52.33;97659.06;5019113;28;20060;-60
2021/10/23 09:53:46;;;;;;;7.80;2.70;;;;;;;15.96;49.80;97662.28;5007862;28;20050;-60
2021/10/23 09:56:14;;;;;;;7.80;3.15;;;;;;;15.32;51.31;97658.72;4995601;28;20064;-60
2021/10/23 09:58:54;;;;;;;5.80;2.50;;;;;;;15.97;49.85;97665.81;5009299;28;20061;-60
2021/10/23 10:01:23;;;;;;;7.15;2.55;;;;;;;15.36;51.14;97663.13;5008817;28;20045;-61
2021/10/23 10:03:54;;;;;;;10.10;3.35;;;;;;;16.11;48.37;97656.91;5007590;28;20494;-61
2021/10/23 10:06:21;;;;;;;7.53;2.15;;;;;;;14.52;50.83;97668.59;5021413;28;20037;-61
2021/10/23 10:08:48;;;;;;;5.28;2.08;;;;;;;13.77;52.87;97659.81;5024610;28;20052;-61
2021/10/23 10:11:14;;;;;;;5.35;2.15;;;;;;;12.39;57.43;97665.41;5017263;28;20081;-61
2021/10/23 10:13:41;;;;;;;8.30;3.17;;;;;;;11.47;63.00;97665.34;5004969;28;20544;-61
2021/10/23 10:16:09;;;;;;;6.90;3.25;;;;;;;11.32;64.18;97655.09;5018326;28;20043;-60
2021/10/23 10:18:35;;;;;;;6.47;2.65;;;;;;;11.72;62.88;97659.75;5021466;28;20568;-59
2021/10/23 10:21:06;;;;;;;9.07;2.47;;;;;;;11.61;62.87;97655.91;5023258;28;20695;-58
2021/10/23 10:23:35;;;;;;;5.18;2.15;;;;;;;11.45;62.10;97655.84;5018566;28;20096;-58
2021/10/23 10:26:19;;;;;;;5.75;2.65;;;;;;;11.21;64.21;97660.25;5002003;28;20048;-59
2021/10/23 10:29:11;;;;;;;5.85;2.00;;;;;;;11.26;63.55;97659.25;5004494;28;20045;-60
2021/10/23 10:43:03;;;;;;;6.50;1.70;;;;;;;12.55;56.16;97645.38;4993967;28;20075;-61
2021/10/23 10:45:41;;;;;;;5.57;1.70;;;;;;;12.36;57.13;97655.13;5001553;28;20058;-60
2021/10/23 10:48:06;;;;;;;4.55;1.83;;;;;;;13.46;55.14;97647.00;4998244;28;20287;-61
2021/10/23 10:50:39;;;;;;;3.63;1.77;;;;;;;14.33;50.02;97643.84;5010705;28;20101;-60
2021/10/23 10:53:23;;;;;;;3.63;1.70;;;;;;;15.03;48.76;97644.56;4994936;28;20533;-61
2021/10/23 10:56:04;;;;;;;4.82;1.40;;;;;;;13.86;47.99;97634.00;5003645;28;20419;-59
2021/10/23 10:58:57;;;;;;;3.30;1.45;;;;;;;12.67;50.08;97636.22;5002571;28;20053;-58
2021/10/23 11:01:25;;;;;;;7.60;1.40;;;;;;;12.48;49.97;97623.22;5005472;28;20613;-60
2021/10/23 11:03:56;;;;;;;4.43;2.05;;;;;;;11.96;54.95;97642.38;4984811;28;20034;-61
2021/10/23 11:06:27;;;;;;;8.13;1.48;;;;;;;12.51;53.01;97633.50;4979464;28;20109;-62
2021/10/23 11:09:11;;;;;;;6.75;1.80;;;;;;;11.52;51.25;97636.03;4997735;28;20050;-59
2021/10/23 11:11:51;;;;;;;2.30;1.30;;;;;;;11.89;51.91;97644.09;4999782;28;20255;-57
2021/10/23 11:16:51;;;;;;;3.58;1.85;;;;;;;11.81;51.68;97632.13;5028284;28;20133;-60
2021/10/23 11:19:50;;;;;;;2.55;1.40;;;;;;;11.93;53.40;97628.56;5001759;28;20045;-59
2021/10/23 11:22:24;;;;;;;6.50;1.70;;;;;;;12.57;51.20;97621.09;4974050;28;20053;-58
2021/10/23 11:25:08;;;;;;;2.70;1.17;;;;;;;12.27;49.98;97620.78;4992465;28;20398;-57
2021/10/23 11:27:44;;;;;;;3.90;1.40;;;;;;;14.03;46.85;97608.72;4984718;28;20041;-60
2021/10/23 11:30:19;;;;;;;6.45;1.45;;;;;;;12.30;49.00;97618.09;4978550;28;20507;-60
2021/10/23 11:33:01;;;;;;;3.95;1.70;;;;;;;12.23;51.89;97628.91;5000795;28;20038;-60
2021/10/23 11:35:34;;;;;;;3.08;1.50;;;;;;;12.94;48.19;97618.78;4997406;28;20053;-58
2021/10/23 11:38:05;;;;;;;6.00;1.45;;;;;;;12.33;50.57;97602.84;4996399;28;20070;-58
2021/10/23 11:40:31;;;;;;;4.40;1.80;;;;;;;12.17;50.62;97609.16;4986502;28;20039;-60
2021/10/23 11:42:57;;;;;;;3.25;1.30;;;;;;;12.36;50.52;97600.19;4993405;28;20034;-59
2021/10/23 11:45:31;;;;;;;5.13;1.77;;;;;;;12.00;52.63;97613.03;4985846;28;20559;-59
2021/10/23 11:47:58;;;;;;;3.22;0.98;;;;;;;12.15;50.77;97616.16;4997691;28;20053;-59